createdAt,value
2019-03-18T00:01:28.204Z,97757.89
2019-03-18T00:04:15.837Z,97762.62
2019-03-18T00:07:03.567Z,97769.59
2019-03-18T00:09:51.091Z,97774.59
2019-03-18T00:12:38.515Z,97780.30
2019-03-18T00:15:26.145Z,97782.66
2019-03-18T00:18:13.058Z,97780.94
2019-03-18T00:21:00.684Z,97792.05
2019-03-18T00:23:48.415Z,97785.53
2019-03-18T00:26:35.760Z,97786.91
2019-03-18T00:29:23.162Z,97790.61
2019-03-18T00:32:10.894Z,97794.59
2019-03-18T00:34:58.319Z,97797.27
2019-03-18T00:37:45.853Z,97795.97
2019-03-18T00:40:33.373Z,97788.24
2019-03-18T00:43:21.107Z,97787.54
2019-03-18T00:46:08.734Z,97787.73
2019-03-18T00:48:56.058Z,97784.25
2019-03-18T00:51:43.590Z,97795.30
2019-03-18T00:54:31.416Z,97798.84
2019-03-18T00:57:19.454Z,97808.47
2019-03-18T01:00:09.743Z,97812.22
2019-03-18T01:02:57.271Z,97810.59
2019-03-18T01:05:44.699Z,97807.45
2019-03-18T01:08:31.913Z,97812.87
2019-03-18T01:11:19.342Z,97808.72
2019-03-18T01:14:06.769Z,97820.02
2019-03-18T01:16:53.958Z,97821.78
2019-03-18T01:19:41.719Z,97827.70
2019-03-18T01:22:29.242Z,97825.23
2019-03-18T01:25:16.869Z,97821.84
2019-03-18T01:28:04.403Z,97832.36
2019-03-18T01:30:51.780Z,97816.76
2019-03-18T01:33:39.446Z,97828.95
2019-03-18T01:36:27.076Z,97830.69
2019-03-18T01:39:15.015Z,97832.61
2019-03-18T01:42:02.538Z,97832.70
2019-03-18T01:44:50.375Z,97834.94
2019-03-18T01:47:37.798Z,97832.62
2019-03-18T01:50:25.732Z,97840.38
2019-03-18T01:53:13.771Z,97847.81
2019-03-18T01:56:01.193Z,97850.23
2019-03-18T01:58:48.925Z,97854.31
2019-03-18T02:01:36.454Z,97860.09
2019-03-18T02:04:23.877Z,97858.86
2019-03-18T02:07:10.993Z,97856.49
2019-03-18T02:09:58.828Z,97859.80
2019-03-18T02:12:46.046Z,97852.48
2019-03-18T02:15:33.778Z,97841.72
2019-03-18T02:18:20.999Z,97853.23
2019-03-18T02:21:08.832Z,97858.90
2019-03-18T02:23:56.566Z,97860.28
2019-03-18T02:26:44.807Z,97869.15
2019-03-18T02:29:32.538Z,97862.25
2019-03-18T02:32:20.269Z,97865.04
2019-03-18T02:35:08.208Z,97858.80
2019-03-18T02:37:55.425Z,97863.91
2019-03-18T02:40:43.361Z,97864.61
2019-03-18T02:43:30.889Z,97868.07
2019-03-18T02:46:18.518Z,97865.45
2019-03-18T02:49:06.263Z,97864.45
2019-03-18T02:51:54.287Z,97864.10
2019-03-18T02:54:41.922Z,97863.03
2019-03-18T02:57:29.749Z,97869.48
2019-03-18T03:00:17.298Z,97864.80
2019-03-18T03:03:05.413Z,97866.13
2019-03-18T03:05:53.050Z,97864.94
2019-03-18T03:08:40.573Z,97867.59
2019-03-18T03:11:28.000Z,97865.52
2019-03-18T03:14:15.421Z,97865.01
2019-03-18T03:17:02.906Z,97858.66
2019-03-18T03:19:50.575Z,97859.30
2019-03-18T03:22:38.702Z,97864.24
2019-03-18T03:25:25.949Z,97862.02
2019-03-18T03:28:13.359Z,97860.36
2019-03-18T03:31:01.025Z,97863.80
2019-03-18T03:33:48.593Z,97866.42
2019-03-18T03:36:35.741Z,97866.41
2019-03-18T03:39:22.951Z,97866.61
2019-03-18T03:42:10.579Z,97864.06
2019-03-18T03:44:58.006Z,97873.33
2019-03-18T03:47:45.765Z,97867.23
2019-03-18T03:50:33.673Z,97864.59
2019-03-18T03:53:21.404Z,97857.61
2019-03-18T03:56:09.341Z,97855.91
2019-03-18T03:58:57.143Z,97853.09
2019-03-18T04:01:44.600Z,97857.67
2019-03-18T04:04:32.675Z,97851.13
2019-03-18T04:07:20.067Z,97856.59
2019-03-18T04:10:10.155Z,97860.50
2019-03-18T04:12:57.574Z,97863.58
2019-03-18T04:15:45.102Z,97863.00
2019-03-18T04:18:32.421Z,97875.26
2019-03-18T04:21:19.744Z,97874.50
2019-03-18T04:24:07.175Z,97869.34
2019-03-18T04:26:54.897Z,97879.64
2019-03-18T04:29:42.216Z,97883.34
2019-03-18T04:32:29.881Z,97884.13
2019-03-18T04:35:17.493Z,97893.05
2019-03-18T04:38:04.696Z,97887.98
2019-03-18T04:40:52.120Z,97892.46
2019-03-18T04:43:40.671Z,97880.54
2019-03-18T04:46:27.992Z,97882.73
2019-03-18T04:49:15.420Z,97883.00
2019-03-18T04:52:02.843Z,97890.67
2019-03-18T04:54:50.058Z,97886.00
2019-03-18T04:57:37.481Z,97882.59
2019-03-18T05:00:24.804Z,97890.24
2019-03-18T05:03:12.007Z,97891.13
2019-03-18T05:05:59.241Z,97899.68
2019-03-18T05:08:46.972Z,97900.76
2019-03-18T05:11:34.397Z,97907.31
2019-03-18T05:14:21.924Z,97899.23
2019-03-18T05:17:09.368Z,97912.18
2019-03-18T05:19:56.569Z,97917.70
2019-03-18T05:22:44.197Z,97922.73
2019-03-18T05:25:32.134Z,97924.81
2019-03-18T05:28:19.660Z,97919.34
2019-03-18T05:31:07.082Z,97911.03
2019-03-18T05:33:54.405Z,97910.69
2019-03-18T05:36:42.341Z,97908.78
2019-03-18T05:39:29.563Z,97912.04
2019-03-18T05:42:17.087Z,97918.97
2019-03-18T05:45:05.744Z,97914.48
2019-03-18T05:47:53.369Z,97919.20
2019-03-18T05:50:40.796Z,97927.34
2019-03-18T05:53:28.323Z,97931.30
2019-03-18T05:56:16.562Z,97931.03
2019-03-18T05:59:03.886Z,97929.02
2019-03-18T06:01:51.626Z,97949.39
2019-03-18T06:04:39.140Z,97944.71
2019-03-18T06:07:26.974Z,97945.96
2019-03-18T06:10:14.605Z,97954.83
2019-03-18T06:13:02.030Z,97956.56
2019-03-18T06:15:49.658Z,97960.23
2019-03-18T06:18:37.180Z,97969.29
2019-03-18T06:21:25.664Z,97971.64
2019-03-18T06:24:13.071Z,97973.16
2019-03-18T06:27:01.098Z,97975.61
2019-03-18T06:29:48.581Z,97963.57
2019-03-18T06:32:36.067Z,97967.42
2019-03-18T06:35:23.775Z,97970.19
2019-03-18T06:38:11.817Z,97975.86
2019-03-18T06:40:59.342Z,97990.16
2019-03-18T06:43:46.766Z,97985.74
2019-03-18T06:46:34.085Z,97985.45
2019-03-18T06:49:21.512Z,97984.05
2019-03-18T06:52:09.035Z,97997.45
2019-03-18T06:54:56.562Z,98012.37
2019-03-18T06:57:44.016Z,98010.79
2019-03-18T07:00:31.412Z,97882.27
2019-03-18T07:03:18.937Z,98024.67
2019-03-18T07:06:06.569Z,98030.86
2019-03-18T07:08:57.173Z,98021.43
2019-03-18T07:11:45.684Z,98031.79
2019-03-18T07:14:34.572Z,98034.94
2019-03-18T07:17:26.344Z,98026.08
2019-03-18T07:20:14.761Z,98033.97
2019-03-18T07:23:02.169Z,98032.53
2019-03-18T07:25:50.405Z,98038.80
2019-03-18T07:28:37.739Z,98030.36
2019-03-18T07:31:25.366Z,98040.09
2019-03-18T07:34:13.096Z,98045.45
2019-03-18T07:37:01.523Z,98045.11
2019-03-18T07:39:49.070Z,98043.30
2019-03-18T07:42:36.807Z,98055.90
2019-03-18T07:45:24.429Z,98051.29
2019-03-18T07:48:12.636Z,98060.08
2019-03-18T07:51:00.203Z,98068.42
2019-03-18T07:53:48.238Z,98075.91
2019-03-18T07:56:35.666Z,98075.63
2019-03-18T07:59:23.204Z,98080.91
2019-03-18T08:02:10.615Z,98089.89
2019-03-18T08:04:58.036Z,98107.09
2019-03-18T08:07:45.255Z,98102.80
2019-03-18T08:10:32.590Z,98101.78
2019-03-18T08:13:19.901Z,98124.29
2019-03-18T08:16:07.326Z,98125.65
2019-03-18T08:18:54.850Z,98129.02
2019-03-18T08:21:43.416Z,98127.63
2019-03-18T08:24:31.139Z,98135.73
2019-03-18T08:27:18.969Z,98122.67
2019-03-18T08:30:14.808Z,98137.66
2019-03-18T08:33:02.014Z,98141.28
2019-03-18T08:35:49.429Z,98148.88
2019-03-18T08:38:36.956Z,98151.08
2019-03-18T08:41:24.484Z,98151.31
2019-03-18T08:44:12.016Z,98162.84
2019-03-18T08:46:59.232Z,98162.66
2019-03-18T08:49:46.757Z,98165.34
2019-03-18T08:52:33.876Z,98169.81
2019-03-18T08:55:21.808Z,98162.38
2019-03-18T08:58:09.550Z,98164.91
2019-03-18T09:00:56.965Z,98162.02
2019-03-18T09:03:44.798Z,98166.50
2019-03-18T09:06:32.655Z,98162.31
2019-03-18T09:09:20.162Z,98168.97
2019-03-18T09:12:07.684Z,98163.58
2019-03-18T09:14:55.334Z,98168.48
2019-03-18T09:17:42.940Z,98180.09
2019-03-18T09:20:30.202Z,98185.67
2019-03-18T09:23:17.687Z,98199.61
2019-03-18T09:26:05.218Z,98196.81
2019-03-18T09:28:53.048Z,98197.80
2019-03-18T09:31:40.172Z,98195.66
2019-03-18T09:34:27.704Z,98200.57
2019-03-18T09:37:15.476Z,98203.79
2019-03-18T09:40:02.932Z,98199.11
2019-03-18T09:42:49.789Z,98213.16
2019-03-18T09:45:36.911Z,98205.88
2019-03-18T09:48:23.994Z,98220.84
2019-03-18T09:51:11.315Z,98221.47
2019-03-18T09:53:58.840Z,98208.73
2019-03-18T09:56:46.470Z,98215.41
2019-03-18T09:59:34.097Z,98208.73
2019-03-18T10:02:21.725Z,98207.53
2019-03-18T10:05:09.254Z,98214.47
2019-03-18T10:07:56.271Z,98219.27
2019-03-18T10:10:44.001Z,98223.84
2019-03-18T10:13:31.525Z,98226.30
2019-03-18T10:16:18.643Z,98223.34
2019-03-18T10:19:06.069Z,98237.20
2019-03-18T10:21:54.209Z,98231.99
2019-03-18T10:24:41.532Z,98229.08
2019-03-18T10:27:29.056Z,98244.66
2019-03-18T10:30:16.890Z,98255.15
2019-03-18T10:33:05.035Z,98272.09
2019-03-18T10:35:54.210Z,98279.10
2019-03-18T10:38:41.835Z,98283.25
2019-03-18T10:41:29.453Z,98289.36
2019-03-18T10:44:16.884Z,98282.62
2019-03-18T10:47:04.607Z,98277.24
2019-03-18T10:49:52.339Z,98284.23
2019-03-18T10:52:39.886Z,98281.55
2019-03-18T10:55:28.128Z,98274.48
2019-03-18T10:58:17.948Z,98272.86
2019-03-18T11:01:04.803Z,98278.39
2019-03-18T11:03:52.127Z,98281.92
2019-03-18T11:06:40.167Z,98283.80
2019-03-18T11:09:27.601Z,98286.39
2019-03-18T11:12:15.317Z,98285.80
2019-03-18T11:15:02.846Z,98282.97
2019-03-18T11:17:55.490Z,98291.77
2019-03-18T11:20:43.023Z,98290.73
2019-03-18T11:23:30.645Z,98289.39
2019-03-18T11:26:18.276Z,98291.54
2019-03-18T11:29:06.518Z,98297.88
2019-03-18T11:31:54.615Z,98290.63
2019-03-18T11:34:42.186Z,98291.08
2019-03-18T11:37:29.507Z,98284.88
2019-03-18T11:40:19.166Z,98296.17
2019-03-18T11:43:07.025Z,98292.98
2019-03-18T11:45:54.762Z,98298.70
2019-03-18T11:48:42.484Z,98296.20
2019-03-18T11:51:29.906Z,98294.26
2019-03-18T11:54:17.908Z,98289.09
2019-03-18T11:57:06.290Z,98287.07
2019-03-18T11:59:54.127Z,98280.09
2019-03-18T12:02:41.752Z,98282.70
2019-03-18T12:05:29.957Z,98272.15
2019-03-18T12:08:17.011Z,98272.84
2019-03-18T12:11:04.433Z,98269.56
2019-03-18T12:13:52.164Z,98273.30
2019-03-18T12:16:39.693Z,98266.86
2019-03-18T12:19:27.321Z,98258.86
2019-03-18T12:22:14.846Z,98255.64
2019-03-18T12:25:02.580Z,98267.73
2019-03-18T12:27:50.420Z,98262.48
2019-03-18T12:30:38.271Z,98263.77
2019-03-18T12:33:25.669Z,98258.52
2019-03-18T12:36:13.096Z,98252.83
2019-03-18T12:39:00.517Z,98246.98
2019-03-18T12:41:48.151Z,98245.81
2019-03-18T12:44:35.573Z,98251.92
2019-03-18T12:47:23.096Z,98250.20
2019-03-18T12:50:13.701Z,98269.16
2019-03-18T12:53:01.224Z,98261.14
2019-03-18T12:55:48.547Z,98281.56
2019-03-18T12:58:36.685Z,98281.05
2019-03-18T13:01:24.011Z,98291.91
2019-03-18T13:04:11.432Z,98286.97
2019-03-18T13:06:59.470Z,98285.53
2019-03-18T13:09:47.101Z,98291.51
2019-03-18T13:12:34.327Z,98289.58
2019-03-18T13:15:22.153Z,98276.65
2019-03-18T13:18:09.575Z,98286.34
2019-03-18T13:21:07.397Z,98287.41
2019-03-18T13:23:46.881Z,98279.77
2019-03-18T13:26:34.415Z,98280.53
2019-03-18T13:29:22.040Z,98291.78
2019-03-18T13:32:09.466Z,98289.44
2019-03-18T13:34:56.892Z,98288.87
2019-03-18T13:37:44.209Z,98277.80
2019-03-18T13:40:31.631Z,98280.47
2019-03-18T13:43:19.268Z,98283.72
2019-03-18T13:46:06.788Z,98284.74
2019-03-18T13:48:54.521Z,98296.06
2019-03-18T13:51:42.354Z,98292.20
2019-03-18T13:54:32.252Z,98294.38
2019-03-18T13:57:18.840Z,98297.39
2019-03-18T14:00:13.125Z,98297.31
2019-03-18T14:03:00.753Z,98295.19
2019-03-18T14:05:48.485Z,98307.09
2019-03-18T14:08:36.116Z,98306.69
2019-03-18T14:11:23.639Z,98309.83
2019-03-18T14:14:11.065Z,98308.13
2019-03-18T14:16:58.427Z,98305.79
2019-03-18T14:19:46.219Z,98311.23
2019-03-18T14:22:33.643Z,98312.31
2019-03-18T14:25:21.273Z,98307.36
2019-03-18T14:28:08.699Z,98315.23
2019-03-18T14:30:56.223Z,98319.88
2019-03-18T14:33:43.956Z,98319.95
2019-03-18T14:36:31.481Z,98338.35
2019-03-18T14:39:18.915Z,98358.74
2019-03-18T14:42:06.844Z,98390.75
2019-03-18T14:44:54.573Z,98398.93
2019-03-18T14:47:41.742Z,98395.45
2019-03-18T14:50:29.221Z,98385.51
2019-03-18T14:53:17.093Z,98380.44
2019-03-18T14:56:05.236Z,98368.73
2019-03-18T14:58:52.783Z,98366.10
2019-03-18T15:01:40.348Z,98367.66
2019-03-18T15:04:27.776Z,98364.67
2019-03-18T15:07:15.716Z,98363.36
2019-03-18T15:10:06.706Z,98364.64
2019-03-18T15:12:53.652Z,98359.25
2019-03-18T15:15:41.059Z,98353.05
2019-03-18T15:18:28.993Z,98345.52
2019-03-18T15:21:16.518Z,98348.88
2019-03-18T15:24:16.173Z,98359.42
2019-03-18T15:26:53.208Z,98354.53
2019-03-18T15:29:41.962Z,98356.71
2019-03-18T15:32:29.492Z,98364.23
2019-03-18T15:35:17.956Z,98372.67
2019-03-18T15:38:05.770Z,98372.34
2019-03-18T15:40:52.888Z,98376.95
2019-03-18T15:43:40.516Z,98377.70
2019-03-18T15:46:27.745Z,98366.06
2019-03-18T15:49:15.369Z,98367.66
2019-03-18T15:52:11.116Z,98372.20
2019-03-18T15:54:54.116Z,98371.38
2019-03-18T15:57:42.145Z,98372.27
2019-03-18T16:00:31.195Z,98386.44
2019-03-18T16:03:18.950Z,98383.08
2019-03-18T16:06:06.668Z,98390.72
2019-03-18T16:08:54.096Z,98393.17
2019-03-18T16:11:41.723Z,98402.41
2019-03-18T16:14:28.945Z,98397.76
2019-03-18T16:17:16.364Z,98403.13
2019-03-18T16:20:03.781Z,98406.45
2019-03-18T16:22:51.212Z,98414.75
2019-03-18T16:25:39.355Z,98422.42
2019-03-18T16:28:26.630Z,98418.64
2019-03-18T16:31:14.407Z,98414.78
2019-03-18T16:34:01.836Z,98418.55
2019-03-18T16:36:49.360Z,98423.19
2019-03-18T16:39:36.784Z,98433.84
2019-03-18T16:42:24.206Z,98429.97
2019-03-18T16:45:13.550Z,98438.13
2019-03-18T16:48:00.698Z,98444.27
2019-03-18T16:50:48.427Z,98449.94
2019-03-18T16:53:36.167Z,98454.66
2019-03-18T16:56:23.816Z,98460.29
2019-03-18T16:59:12.237Z,98473.91
2019-03-18T17:01:59.558Z,98484.03
2019-03-18T17:04:47.096Z,98484.11
2019-03-18T17:07:35.140Z,98497.38
2019-03-18T17:10:22.960Z,98499.92
2019-03-18T17:13:10.796Z,98505.02
2019-03-18T17:15:58.527Z,98510.92
2019-03-18T17:18:46.293Z,98512.75
2019-03-18T17:21:33.686Z,98524.70
2019-03-18T17:24:21.727Z,98525.52
2019-03-18T17:27:09.658Z,98522.25
2019-03-18T17:29:57.396Z,98534.08
2019-03-18T17:32:45.127Z,98539.63
2019-03-18T17:35:32.958Z,98539.79
2019-03-18T17:38:20.890Z,98537.83
2019-03-18T17:41:09.593Z,98547.52
2019-03-18T17:43:57.398Z,98550.33
2019-03-18T17:46:44.945Z,98562.33
2019-03-18T17:49:32.550Z,98566.60
2019-03-18T17:52:20.183Z,98572.49
2019-03-18T17:55:09.024Z,98579.58
2019-03-18T17:57:56.758Z,98582.19
2019-03-18T18:00:52.375Z,98584.96
2019-03-18T18:03:39.990Z,98584.64
2019-03-18T18:06:29.679Z,98588.53
2019-03-18T18:09:17.609Z,98600.16
2019-03-18T18:12:07.359Z,98607.05
2019-03-18T18:14:54.598Z,98600.97
2019-03-18T18:17:42.434Z,98607.98
2019-03-18T18:20:31.914Z,98616.33
2019-03-18T18:23:19.129Z,98624.01
2019-03-18T18:26:06.654Z,98631.49
2019-03-18T18:28:54.500Z,98631.16
2019-03-18T18:31:41.823Z,98633.44
2019-03-18T18:34:29.439Z,98637.37
2019-03-18T18:37:16.553Z,98641.23
2019-03-18T18:40:07.338Z,98646.14
2019-03-18T18:42:54.891Z,98650.22
2019-03-18T18:45:42.719Z,98656.09
2019-03-18T18:48:30.453Z,98664.34
2019-03-18T18:51:17.984Z,98664.61
2019-03-18T18:54:05.911Z,98669.34
2019-03-18T18:56:53.708Z,98669.69
2019-03-18T18:59:41.479Z,98681.58
2019-03-18T19:02:29.210Z,98687.64
2019-03-18T19:05:17.610Z,98685.55
2019-03-18T19:08:05.813Z,98684.33
2019-03-18T19:10:53.321Z,98682.19
2019-03-18T19:13:40.441Z,98683.16
2019-03-18T19:16:28.581Z,98685.34
2019-03-18T19:19:16.417Z,98696.16
2019-03-18T19:22:04.148Z,98693.28
2019-03-18T19:24:51.776Z,98699.06
2019-03-18T19:27:39.508Z,98699.08
2019-03-18T19:30:27.241Z,98704.80
2019-03-18T19:33:14.969Z,98716.42
2019-03-18T19:36:02.515Z,98725.28
2019-03-18T19:38:49.714Z,98725.16
2019-03-18T19:41:37.138Z,98724.55
2019-03-18T19:44:24.870Z,98728.70
2019-03-18T19:47:12.399Z,98728.13
2019-03-18T19:50:00.026Z,98733.89
2019-03-18T19:52:47.961Z,98734.41
2019-03-18T19:55:35.693Z,98734.42
2019-03-18T19:58:23.538Z,98735.43
2019-03-18T20:01:11.264Z,98735.16
2019-03-18T20:03:59.816Z,98751.19
2019-03-18T20:06:47.136Z,98752.84
2019-03-18T20:09:34.556Z,98754.11
2019-03-18T20:12:21.672Z,98763.45
2019-03-18T20:15:11.761Z,98755.42
2019-03-18T20:17:59.083Z,98757.42
2019-03-18T20:20:46.708Z,98755.72
2019-03-18T20:23:34.439Z,98758.99
2019-03-18T20:26:21.761Z,98761.75
2019-03-18T20:29:09.191Z,98763.22
2019-03-18T20:31:56.610Z,98772.87
2019-03-18T20:34:43.625Z,98697.87
2019-03-18T20:37:31.460Z,98771.95
2019-03-18T20:40:19.296Z,98777.96
2019-03-18T20:43:06.613Z,98790.88
2019-03-18T20:45:54.451Z,98788.61
2019-03-18T20:48:41.973Z,98794.06
2019-03-18T20:51:29.503Z,98790.70
2019-03-18T20:54:16.621Z,98798.06
2019-03-18T20:57:04.661Z,98798.35
2019-03-18T20:59:52.432Z,98812.21
2019-03-18T21:02:39.916Z,98818.16
2019-03-18T21:05:27.650Z,98827.48
2019-03-18T21:08:15.069Z,98829.75
2019-03-18T21:11:03.005Z,98830.87
2019-03-18T21:13:57.121Z,98838.72
2019-03-18T21:16:39.800Z,98844.72
2019-03-18T21:19:27.429Z,98857.99
2019-03-18T21:22:15.160Z,98858.98
2019-03-18T21:25:02.795Z,98859.11
2019-03-18T21:27:51.648Z,98858.92
2019-03-18T21:30:39.693Z,98857.67
2019-03-18T21:33:27.423Z,98859.63
2019-03-18T21:36:28.258Z,98858.88
2019-03-18T21:39:07.486Z,98868.17
2019-03-18T21:41:55.116Z,98869.41
2019-03-18T21:44:42.541Z,98876.23
2019-03-18T21:47:30.479Z,98879.05
2019-03-18T21:50:18.006Z,98881.55
2019-03-18T21:53:05.577Z,98887.34
2019-03-18T21:55:53.880Z,98891.05
2019-03-18T21:58:41.298Z,98900.00
2019-03-18T22:01:28.724Z,98903.02
2019-03-18T22:04:15.947Z,98899.31
2019-03-18T22:07:04.802Z,98897.41
2019-03-18T22:09:52.648Z,98890.16
2019-03-18T22:12:39.853Z,98888.92
2019-03-18T22:15:27.689Z,98893.40
2019-03-18T22:18:15.315Z,98891.54
2019-03-18T22:21:02.573Z,98895.47
2019-03-18T22:23:50.269Z,98895.39
2019-03-18T22:26:37.282Z,98899.52
2019-03-18T22:29:24.939Z,98897.33
2019-03-18T22:32:12.375Z,98893.41
2019-03-18T22:35:00.326Z,98899.59
2019-03-18T22:37:47.900Z,98898.35
2019-03-18T22:40:36.059Z,98904.33
2019-03-18T22:43:23.983Z,98901.91
2019-03-18T22:46:11.399Z,98907.47
2019-03-18T22:48:59.240Z,98913.72
2019-03-18T22:51:46.964Z,98916.28
2019-03-18T22:54:34.800Z,98926.37
2019-03-18T22:57:22.530Z,98924.99
2019-03-18T23:00:18.000Z,98925.19
2019-03-18T23:03:05.798Z,98915.20
2019-03-18T23:05:53.571Z,98913.02
2019-03-18T23:08:41.011Z,98918.52
2019-03-18T23:11:28.361Z,98916.83
2019-03-18T23:14:15.846Z,98925.14
2019-03-18T23:17:03.516Z,98931.23
2019-03-18T23:19:51.043Z,98941.37
2019-03-18T23:22:38.471Z,98941.46
2019-03-18T23:25:25.786Z,98939.64
2019-03-18T23:28:13.310Z,98950.88
2019-03-18T23:31:01.147Z,98946.24
2019-03-18T23:33:48.877Z,98950.95
2019-03-18T23:36:36.301Z,98953.67
2019-03-18T23:39:23.633Z,98953.50
2019-03-18T23:42:10.723Z,98958.27
2019-03-18T23:44:58.264Z,98960.88
2019-03-18T23:47:45.791Z,98959.55
2019-03-18T23:50:32.702Z,98955.07
2019-03-18T23:53:19.720Z,98970.58
2019-03-18T23:56:07.244Z,98968.11
2019-03-18T23:58:54.672Z,98973.19
